Main page
METAR-TAF:

METAR-TAF

Airports :

Tangier, Morocco

Tangier Ibn Battouta Airport

latitude: 35-44N, longitude: 005-54W, elevation: 19 m

Current weather observation

The report was made 15 minutes ago, at 07:00 UTC
Wind 2 kt from variable directions
Temperature 6°C
Humidity 93%
Pressure 1021 hPa
Visibility: 6000 m
Few clouds at a height of 1600 ft

METAR: GMTT 180700Z VRB02KT 6000 FEW016 06/05 Q1021 NOSIG

Time: 07:15 (07:15 UTC)

Forecast

The report was made 2 hours and 15 minutes ago, at 05:00 UTC
Forecast valid from 18 at 06 UTC to 19 at 12 UTC
Wind 2 kt from variable directions
Visibility: 6000 m
Few clouds at a height of 1600 ft
Becoming
from 18 at 09 UTC to 18 at 13 UTC
Wind 10 kt from the North/Northwest
Becoming
from 18 at 17 UTC to 18 at 19 UTC
Wind 16 kt from the East

TAF: GMTT 180500Z 1806/1912 VRB02KT 6000 FEW016 BECMG 1809/1813 34010KT BECMG 1817/1819 09016KT

Weather observations and forecasts of more than 4000 airports (METAR and TAF reports).

The available stations are represented by yellow and red dots on the map.

Hover mouse over dot to see the name of the station.

Then click to see weather observations and forecasts.

To change the map : click on the green buttons with a black cross to zoom in, on the green button with a dash to zoom out, or on the green arrows for adjacent maps.


METAR-TAF: